»·PEaware :: GNL605 KMFR-KBFI

GNL605 :: KMFR-KBFI

FLIGHT INFORMATION

Flight Status: Arrived
Operator: Unknown
More flights by this operator :: More flights under this callsign
Pilot: Drew L. (13237)
Aircraft: CESSNA 550 CITATION 2/S2/BRAVO
(C550)
More flights by this aircraft type
Origin: KMFR Rogue Valley Intl-Medford
United States
Destination: KBFI Boeing Field/King Co Intl
United States
More flights between these airports :: More routes between these airports
Route: +JKSN1 OED BTG OLM2
File this flight plan on PilotEdge
Remarks:
Altitude:
(Current/Filed)
33,000ft
Speed:
(Current/Filed)
0kts
Departed: 04-Jan-19 02:52 PM
Arrived: 04-Jan-19 03:54 PM
Distance/Time
Traveled:
310nm/1:02
Distance/Time
To Go:
Arrived

Flight Plot

Page will automatically refresh every two minutes.

Flight plan parsing failed; only flown route is shown


Map Options




Map Legend


Flown Route
Filed Route
Departure Airport
Arrival Airport
Navaid (VOR, NDB)
Fix

Horizontal Profiles

Position Reports

Time Latitude Longitude Heading Altitude Ground
Speed
04-Jan-19 14:29 42.375098 -122.877828 292 1320ft 0kts
04-Jan-19 14:30 42.375098 -122.877828 292 1320ft 0kts
04-Jan-19 14:31 42.375098 -122.877828 292 1320ft 0kts
04-Jan-19 14:32 42.375098 -122.877828 292 1320ft 0kts
04-Jan-19 14:33 42.375098 -122.877829 292 1320ft 0kts
04-Jan-19 14:34 42.375098 -122.877828 292 1320ft 0kts
04-Jan-19 14:35 42.375098 -122.877829 292 1320ft 0kts
04-Jan-19 14:36 42.375098 -122.877829 292 1320ft 0kts
04-Jan-19 14:37 42.375098 -122.877829 292 1320ft 0kts
04-Jan-19 14:38 42.375098 -122.877829 292 1320ft 0kts
04-Jan-19 14:39 42.375098 -122.877829 292 1320ft 0kts
04-Jan-19 14:40 42.375098 -122.877829 292 1320ft 0kts
04-Jan-19 14:41 42.375098 -122.877829 292 1320ft 0kts
04-Jan-19 14:42 42.375098 -122.877829 292 1320ft 0kts
04-Jan-19 14:43 42.375282 -122.877967 28 1320ft 0kts
04-Jan-19 14:44 42.375759 -122.878090 302 1320ft 2kts
04-Jan-19 14:45 42.376427 -122.876376 70 1320ft 4kts
04-Jan-19 14:46 42.377326 -122.876113 338 1320ft 12kts
04-Jan-19 14:47 42.380855 -122.877972 336 1320ft 8kts
04-Jan-19 14:48 42.384392 -122.879819 338 1320ft 11kts
04-Jan-19 14:49 42.385819 -122.880414 66 1320ft 0kts
04-Jan-19 14:50 42.385840 -122.880297 76 1320ft 0kts
04-Jan-19 14:51 42.377354 -122.874563 158 1715ft 139kts
04-Jan-19 14:52 42.331106 -122.861512 220 6311ft 192kts
04-Jan-19 14:53 42.354513 -122.904511 333 10733ft 225kts
04-Jan-19 14:54 42.437168 -122.923295 9 12716ft 351kts
04-Jan-19 14:55 42.504398 -122.980439 284 17442ft 287kts
04-Jan-19 14:56 42.555751 -123.069080 331 20659ft 343kts
04-Jan-19 14:57 42.657375 -123.064177 1 22919ft 382kts
04-Jan-19 14:58 42.763443 -123.048324 0 23104ft 381kts
04-Jan-19 14:59 42.865129 -123.033511 359 25404ft 376kts
04-Jan-19 15:00 42.972157 -123.017929 359 27461ft 391kts
04-Jan-19 15:01 43.080827 -123.001903 358 29509ft 394kts
04-Jan-19 15:02 43.189657 -122.985818 357 31497ft 392kts
04-Jan-19 15:03 43.300928 -122.969606 357 32028ft 417kts
04-Jan-19 15:04 43.419547 -122.952008 358 32029ft 438kts
04-Jan-19 15:05 43.542549 -122.933565 358 32031ft 447kts
04-Jan-19 15:06 43.667515 -122.914811 358 32032ft 452kts
04-Jan-19 15:07 43.793023 -122.895931 358 32034ft 454kts
04-Jan-19 15:08 43.918645 -122.876967 357 32036ft 455kts
04-Jan-19 15:09 44.045144 -122.857807 357 32020ft 457kts
04-Jan-19 15:10 44.172014 -122.838490 357 32008ft 457kts
04-Jan-19 15:11 44.298380 -122.819171 357 32010ft 457kts
04-Jan-19 15:12 44.424701 -122.799783 357 32015ft 457kts
04-Jan-19 15:13 44.551433 -122.780252 357 32017ft 457kts
04-Jan-19 15:14 44.677460 -122.760772 357 32016ft 457kts
04-Jan-19 15:15 44.804021 -122.741076 357 32018ft 458kts
04-Jan-19 15:16 44.930615 -122.721281 357 32024ft 458kts
04-Jan-19 15:17 45.057141 -122.701453 357 32030ft 458kts
04-Jan-19 15:18 45.184050 -122.681395 357 32019ft 457kts
04-Jan-19 15:19 45.310214 -122.661445 357 32022ft 456kts
04-Jan-19 15:20 45.436598 -122.641328 357 32031ft 456kts
04-Jan-19 15:21 45.562465 -122.621252 357 32028ft 457kts
04-Jan-19 15:22 45.688662 -122.600979 357 32027ft 457kts
04-Jan-19 15:23 45.811754 -122.607657 339 32029ft 435kts
04-Jan-19 15:24 45.932632 -122.637620 339 31494ft 448kts
04-Jan-19 15:25 46.053629 -122.667690 339 29982ft 430kts
04-Jan-19 15:26 46.169788 -122.696869 339 28183ft 413kts
04-Jan-19 15:27 46.282107 -122.725292 340 26172ft 408kts
04-Jan-19 15:28 46.392978 -122.753338 340 24271ft 402kts
04-Jan-19 15:29 46.502368 -122.781177 340 22375ft 397kts
04-Jan-19 15:30 46.610326 -122.808773 341 20487ft 392kts
04-Jan-19 15:31 46.714405 -122.835322 341 19713ft 366kts
04-Jan-19 15:32 46.808732 -122.859475 339 19228ft 325kts
04-Jan-19 15:33 46.894550 -122.881694 339 19059ft 298kts
04-Jan-19 15:34 46.978364 -122.882200 14 18975ft 330kts
04-Jan-19 15:35 47.055584 -122.795140 38 17606ft 359kts
04-Jan-19 15:36 47.131231 -122.698217 38 16219ft 360kts
04-Jan-19 15:37 47.205989 -122.602234 39 14609ft 348kts
04-Jan-19 15:38 47.277252 -122.510460 39 13002ft 330kts
04-Jan-19 15:39 47.349972 -122.438218 358 11127ft 312kts
04-Jan-19 15:40 47.433719 -122.433320 357 9126ft 278kts
04-Jan-19 15:41 47.505431 -122.445551 337 7082ft 251kts
04-Jan-19 15:42 47.570932 -122.477086 336 4885ft 246kts
04-Jan-19 15:43 47.632258 -122.508306 337 3925ft 222kts
04-Jan-19 15:44 47.663868 -122.559861 241 2939ft 182kts
04-Jan-19 15:45 47.699297 -122.578702 54 3067ft 217kts
04-Jan-19 15:46 47.738776 -122.507041 41 3025ft 228kts
04-Jan-19 15:47 47.726678 -122.451501 172 3040ft 190kts
04-Jan-19 15:48 47.681305 -122.441903 173 3039ft 192kts
04-Jan-19 15:49 47.641316 -122.397797 146 3060ft 195kts
04-Jan-19 15:50 47.594650 -122.357529 151 1400ft 208kts
04-Jan-19 15:51 47.557579 -122.325918 148 743ft 94kts
04-Jan-19 15:52 47.535665 -122.307254 151 20ft 75kts
04-Jan-19 15:53 47.530822 -122.300351 119 20ft 4kts
04-Jan-19 15:54 47.529322 -122.297890 119 20ft 9kts
04-Jan-19 15:55 47.529237 -122.298028 308 20ft 0kts
04-Jan-19 15:56 47.529237 -122.298028 308 20ft 0kts
04-Jan-19 15:57 47.529237 -122.298028 308 20ft 0kts

Navigation Log

Ident Type
Flight plan parsing failed, navigation log unavailable